createdAt,value
2023-04-27T05:01:10.730Z,25.00
2023-04-27T05:02:10.694Z,25.00
2023-04-27T05:03:10.847Z,25.00
2023-04-27T05:04:11.037Z,25.00
2023-04-27T05:05:10.773Z,25.00
2023-04-27T05:06:10.853Z,25.00
2023-04-27T05:07:13.302Z,0.00
2023-04-27T05:08:10.823Z,0.00
2023-04-27T05:09:10.864Z,0.00
2023-04-27T05:10:10.837Z,0.00
2023-04-27T05:11:10.852Z,0.00
2023-04-27T05:12:10.818Z,0.00
2023-04-27T05:13:10.845Z,0.00
2023-04-27T05:14:10.774Z,0.00
2023-04-27T05:15:10.767Z,0.00
2023-04-27T05:16:10.827Z,0.00
2023-04-27T05:17:10.756Z,0.00
2023-04-27T05:18:10.764Z,0.00
2023-04-27T05:19:10.786Z,0.00
2023-04-27T05:20:10.745Z,0.00
2023-04-27T05:21:10.707Z,0.00
2023-04-27T05:22:10.720Z,0.00
2023-04-27T05:23:10.733Z,0.00
2023-04-27T05:24:10.713Z,0.00
2023-04-27T05:25:10.702Z,0.00
2023-04-27T05:26:10.706Z,0.00
2023-04-27T05:27:10.703Z,1.85
2023-04-27T05:28:10.699Z,25.77
2023-04-27T05:29:10.671Z,25.00
2023-04-27T05:30:10.682Z,25.00
2023-04-27T05:31:10.815Z,27.23
2023-04-27T05:32:10.723Z,25.00
2023-04-27T05:33:10.732Z,26.03
2023-04-27T05:34:10.646Z,27.76
2023-04-27T05:35:10.644Z,26.08
2023-04-27T05:36:10.745Z,25.68
2023-04-27T05:37:10.598Z,25.44
2023-04-27T05:38:10.604Z,27.08
2023-04-27T05:39:11.504Z,26.51
2023-04-27T05:40:10.592Z,25.00
2023-04-27T05:41:10.653Z,28.43
2023-04-27T05:42:10.949Z,28.14
2023-04-27T05:43:10.935Z,27.55
2023-04-27T05:44:10.793Z,28.54
2023-04-27T05:45:10.800Z,28.83
2023-04-27T05:46:10.620Z,26.43
2023-04-27T05:47:10.584Z,25.46
2023-04-27T05:48:10.582Z,29.16
2023-04-27T05:49:10.559Z,27.08
2023-04-27T05:50:10.528Z,25.03
2023-04-27T05:51:10.544Z,25.00
2023-04-27T05:52:10.539Z,27.83
2023-04-27T05:53:10.539Z,29.99
2023-04-27T05:54:10.551Z,33.18
2023-04-27T05:55:10.477Z,30.63
2023-04-27T05:56:10.478Z,34.05
2023-04-27T05:57:12.555Z,32.84
2023-04-27T05:58:10.456Z,25.49
2023-04-27T05:59:10.641Z,25.86
2023-04-27T06:00:10.665Z,24.64
2023-04-27T06:01:10.439Z,25.80
2023-04-27T06:02:10.483Z,41.28
2023-04-27T06:03:10.575Z,54.95
2023-04-27T06:04:10.586Z,76.10
2023-04-27T06:05:10.553Z,76.93
2023-04-27T06:06:10.531Z,69.17
2023-04-27T06:07:10.494Z,70.55
2023-04-27T06:08:10.525Z,74.29
2023-04-27T06:09:10.536Z,81.80
2023-04-27T06:10:10.546Z,81.32
2023-04-27T06:11:10.564Z,56.49
2023-04-27T06:12:10.669Z,25.00
2023-04-27T06:13:10.706Z,26.18
2023-04-27T06:14:10.681Z,27.32
2023-04-27T06:15:10.912Z,35.15
2023-04-27T06:16:10.771Z,55.76
2023-04-27T06:17:10.755Z,62.01
2023-04-27T06:18:10.839Z,64.99
2023-04-27T06:19:10.795Z,65.01
2023-04-27T06:20:11.609Z,71.41
2023-04-27T06:21:10.803Z,76.85
2023-04-27T06:22:10.942Z,85.23
2023-04-27T06:23:10.813Z,86.30
2023-04-27T06:24:10.822Z,93.40
2023-04-27T06:25:10.872Z,96.75
2023-04-27T06:26:10.939Z,98.39
2023-04-27T06:27:11.004Z,97.57
2023-04-27T06:28:11.095Z,96.10
2023-04-27T06:29:11.327Z,94.68
2023-04-27T06:30:11.629Z,96.76
2023-04-27T06:31:11.197Z,90.65
2023-04-27T06:32:11.280Z,95.20
2023-04-27T06:33:11.281Z,91.29
2023-04-27T06:34:11.716Z,100.05
2023-04-27T06:35:11.372Z,99.17
2023-04-27T06:36:11.588Z,97.02
2023-04-27T06:37:11.413Z,97.34
2023-04-27T06:38:11.407Z,98.15
2023-04-27T06:39:11.492Z,99.31
2023-04-27T06:40:11.382Z,98.75
2023-04-27T06:41:11.363Z,98.57
2023-04-27T06:42:11.371Z,98.99
2023-04-27T06:43:11.340Z,92.61
2023-04-27T06:44:11.386Z,94.62
2023-04-27T06:45:11.346Z,95.24
2023-04-27T06:46:11.412Z,96.96
2023-04-27T06:47:11.315Z,105.29
2023-04-27T06:48:11.319Z,115.51
2023-04-27T06:49:11.734Z,110.85
2023-04-27T06:50:11.476Z,109.48
2023-04-27T06:51:11.350Z,102.31
2023-04-27T06:52:11.452Z,104.40
2023-04-27T06:53:11.568Z,104.03
2023-04-27T06:54:11.498Z,92.09
2023-04-27T06:55:11.533Z,81.84
2023-04-27T06:56:11.581Z,83.09
2023-04-27T06:57:11.632Z,82.49
2023-04-27T06:58:13.001Z,80.60
2023-04-27T06:59:11.956Z,83.09
2023-04-27T07:00:11.780Z,79.34
2023-04-27T07:01:11.929Z,77.04
2023-04-27T07:02:11.849Z,76.10
2023-04-27T07:03:12.089Z,73.62
2023-04-27T07:04:12.077Z,87.18
2023-04-27T07:05:11.964Z,97.23
2023-04-27T07:06:12.018Z,108.24
2023-04-27T07:07:12.063Z,111.63
2023-04-27T07:08:12.120Z,119.95
2023-04-27T07:09:26.138Z,127.49
2023-04-27T07:10:13.214Z,127.68
2023-04-27T07:11:12.147Z,128.89
2023-04-27T07:12:12.143Z,131.55
2023-04-27T07:13:12.633Z,135.33
2023-04-27T07:14:12.148Z,139.71
2023-04-27T07:15:12.116Z,140.41
2023-04-27T07:16:12.272Z,144.14
2023-04-27T07:17:12.203Z,144.81
2023-04-27T07:18:12.139Z,143.29
2023-04-27T07:19:12.683Z,142.47
2023-04-27T07:20:12.106Z,142.31
2023-04-27T07:21:12.065Z,143.43
2023-04-27T07:22:12.230Z,142.05
2023-04-27T07:23:12.334Z,146.96
2023-04-27T07:24:12.132Z,143.25
2023-04-27T07:25:12.107Z,146.92
2023-04-27T07:26:12.027Z,142.95
2023-04-27T07:27:12.013Z,140.35
2023-04-27T07:28:12.089Z,141.86
2023-04-27T07:29:25.570Z,141.76
2023-04-27T07:30:12.995Z,141.89
2023-04-27T07:31:13.746Z,141.11
2023-04-27T07:32:12.042Z,138.22
2023-04-27T07:33:12.016Z,140.10
2023-04-27T07:34:11.986Z,145.67
2023-04-27T07:35:12.033Z,136.59
2023-04-27T07:36:12.133Z,134.99
2023-04-27T07:37:12.172Z,130.03
2023-04-27T07:38:12.633Z,135.48
2023-04-27T07:39:12.615Z,136.04
2023-04-27T07:40:12.438Z,127.60
2023-04-27T07:41:12.333Z,131.35
2023-04-27T07:42:12.701Z,138.57
2023-04-27T07:43:13.398Z,146.67
2023-04-27T07:44:12.503Z,141.28
2023-04-27T07:45:12.588Z,148.41
2023-04-27T07:46:12.659Z,141.22
2023-04-27T07:47:12.812Z,142.40
2023-04-27T07:48:12.972Z,152.56
2023-04-27T07:49:14.103Z,157.67
2023-04-27T07:50:12.738Z,164.47
2023-04-27T07:51:12.795Z,176.45
2023-04-27T07:52:12.756Z,167.31
2023-04-27T07:53:12.786Z,170.30
2023-04-27T07:54:12.812Z,175.67
2023-04-27T07:55:12.792Z,166.68
2023-04-27T07:56:12.882Z,173.49
2023-04-27T07:57:12.840Z,162.92
2023-04-27T07:58:12.835Z,171.26
2023-04-27T07:59:13.355Z,179.18
2023-04-27T08:00:13.076Z,177.55
2023-04-27T08:01:12.913Z,170.93
2023-04-27T08:02:19.622Z,160.87
2023-04-27T08:03:14.299Z,161.28
2023-04-27T08:04:13.079Z,163.01
2023-04-27T08:05:13.009Z,167.97
2023-04-27T08:06:13.619Z,179.80
2023-04-27T08:07:13.093Z,188.08
2023-04-27T08:08:12.885Z,190.29
2023-04-27T08:09:12.973Z,190.60
2023-04-27T08:10:12.855Z,191.81
2023-04-27T08:11:12.885Z,187.79
2023-04-27T08:12:12.858Z,188.94
2023-04-27T08:13:12.928Z,209.10
2023-04-27T08:14:12.800Z,192.10
2023-04-27T08:15:12.792Z,169.87
2023-04-27T08:16:12.880Z,171.01
2023-04-27T08:17:12.810Z,163.29
2023-04-27T08:18:12.825Z,140.10
2023-04-27T08:19:13.241Z,121.31
2023-04-27T08:20:12.769Z,120.78
2023-04-27T08:21:12.767Z,91.03
2023-04-27T08:22:12.799Z,86.86
2023-04-27T08:23:12.735Z,77.06
2023-04-27T08:24:12.767Z,81.14
2023-04-27T08:25:12.839Z,96.28
2023-04-27T08:26:12.832Z,107.28
2023-04-27T08:27:12.864Z,81.02
2023-04-27T08:28:12.881Z,71.93
2023-04-27T08:29:26.312Z,58.03
2023-04-27T08:30:13.940Z,59.21
2023-04-27T08:31:13.053Z,67.14
2023-04-27T08:32:12.880Z,81.76
2023-04-27T08:33:12.996Z,106.51
2023-04-27T08:34:12.878Z,139.43
2023-04-27T08:35:12.885Z,150.53
2023-04-27T08:36:12.902Z,146.98
2023-04-27T08:37:12.829Z,140.66
2023-04-27T08:38:12.841Z,149.35
2023-04-27T08:39:13.048Z,153.37
2023-04-27T08:40:14.728Z,155.51
2023-04-27T08:41:21.356Z,111.26
2023-04-27T08:42:13.842Z,37.19
2023-04-27T08:43:12.900Z,0.00
2023-04-27T08:44:12.820Z,0.00
2023-04-27T08:45:14.495Z,0.00
2023-04-27T08:46:12.813Z,0.00
2023-04-27T08:47:12.921Z,0.00
2023-04-27T08:48:12.877Z,0.00
2023-04-27T08:49:15.193Z,0.00
2023-04-27T08:50:12.792Z,0.00
2023-04-27T08:51:12.852Z,0.00
2023-04-27T08:52:12.798Z,0.00
2023-04-27T08:53:12.756Z,0.00
2023-04-27T08:54:13.254Z,0.00
2023-04-27T08:55:14.360Z,0.00
2023-04-27T08:56:12.716Z,0.00
2023-04-27T08:57:12.731Z,0.00
2023-04-27T08:58:12.736Z,0.00
2023-04-27T08:59:12.852Z,0.00
2023-04-27T09:00:12.721Z,0.00
2023-04-27T09:01:12.702Z,0.00
2023-04-27T09:02:12.816Z,10.36
2023-04-27T09:03:12.852Z,24.84
2023-04-27T09:04:13.004Z,44.04
2023-04-27T09:05:12.896Z,39.26
2023-04-27T09:06:12.799Z,25.00
2023-04-27T09:07:12.684Z,49.34
2023-04-27T09:08:12.780Z,54.41
2023-04-27T09:09:12.852Z,44.28
2023-04-27T09:10:12.674Z,42.41
2023-04-27T09:11:12.791Z,42.41
2023-04-27T09:12:12.866Z,26.04
2023-04-27T09:13:12.624Z,42.13
2023-04-27T09:14:13.015Z,49.39
2023-04-27T09:15:13.687Z,59.78
2023-04-27T09:16:12.648Z,39.74
2023-04-27T09:17:12.675Z,28.41
2023-04-27T09:18:12.605Z,56.48
2023-04-27T09:19:12.822Z,67.36
2023-04-27T09:20:12.586Z,53.66
2023-04-27T09:21:12.546Z,67.02
2023-04-27T09:22:12.580Z,72.74
2023-04-27T09:23:12.557Z,77.82
2023-04-27T09:24:12.704Z,64.49
2023-04-27T09:25:12.668Z,56.63
2023-04-27T09:26:12.812Z,39.22
2023-04-27T09:27:12.789Z,25.52
2023-04-27T09:28:12.828Z,35.05
2023-04-27T09:29:13.019Z,25.23
2023-04-27T09:30:13.715Z,52.65
2023-04-27T09:31:14.321Z,79.86
2023-04-27T09:32:13.789Z,89.42
2023-04-27T09:33:13.795Z,87.52
2023-04-27T09:34:12.876Z,110.85
2023-04-27T09:35:13.695Z,121.46
2023-04-27T09:36:12.864Z,153.56
2023-04-27T09:37:12.905Z,206.40
2023-04-27T09:38:13.741Z,234.76
2023-04-27T09:39:13.152Z,250.00
2023-04-27T09:40:13.127Z,250.05
2023-04-27T09:41:13.067Z,248.44
2023-04-27T09:42:13.168Z,248.28
2023-04-27T09:43:13.037Z,250.00
2023-04-27T09:44:13.115Z,250.35
2023-04-27T09:45:13.445Z,250.00
2023-04-27T09:46:13.370Z,247.87
2023-04-27T09:47:13.282Z,249.03
2023-04-27T09:48:13.403Z,250.00
2023-04-27T09:49:13.501Z,249.18
2023-04-27T09:50:13.356Z,250.00
2023-04-27T09:51:13.375Z,246.85
2023-04-27T09:52:14.147Z,250.04
2023-04-27T09:53:13.402Z,249.51
2023-04-27T09:54:13.383Z,250.00
2023-04-27T09:55:13.417Z,247.58
2023-04-27T09:56:13.429Z,247.25
2023-04-27T09:57:13.398Z,250.00
2023-04-27T09:58:13.423Z,248.62
2023-04-27T09:59:13.588Z,249.00
2023-04-27T10:00:13.427Z,249.18
2023-04-27T10:01:13.567Z,250.00
2023-04-27T10:02:24.105Z,249.16
2023-04-27T10:03:14.526Z,249.23
2023-04-27T10:04:13.621Z,248.25
2023-04-27T10:05:13.508Z,246.76
2023-04-27T10:06:13.448Z,249.26
2023-04-27T10:07:13.444Z,249.68
2023-04-27T10:08:13.476Z,249.42
2023-04-27T10:09:13.671Z,247.50
2023-04-27T10:10:13.405Z,249.05
2023-04-27T10:11:13.387Z,248.05
2023-04-27T10:12:13.425Z,249.22
2023-04-27T10:13:13.425Z,248.30
2023-04-27T10:14:13.628Z,249.24
2023-04-27T10:15:13.709Z,249.19
2023-04-27T10:16:13.591Z,250.00
2023-04-27T10:17:13.662Z,248.14
2023-04-27T10:18:13.912Z,248.99
2023-04-27T10:19:14.017Z,248.61
2023-04-27T10:20:13.788Z,248.34
2023-04-27T10:21:13.902Z,248.78
2023-04-27T10:22:13.933Z,238.82
2023-04-27T10:23:13.962Z,221.41
2023-04-27T10:24:14.275Z,224.63
2023-04-27T10:25:14.133Z,222.74
2023-04-27T10:26:14.553Z,218.62
2023-04-27T10:27:14.212Z,220.99
2023-04-27T10:28:14.382Z,222.84
2023-04-27T10:29:14.528Z,220.74
2023-04-27T10:30:14.386Z,192.24
2023-04-27T10:31:14.505Z,110.22
2023-04-27T10:32:14.490Z,108.71
2023-04-27T10:33:14.545Z,111.43
2023-04-27T10:34:14.547Z,113.77
2023-04-27T10:35:15.463Z,114.27
2023-04-27T10:36:15.377Z,114.09
2023-04-27T10:37:14.544Z,123.29
2023-04-27T10:38:14.478Z,138.71
2023-04-27T10:39:14.677Z,114.29
2023-04-27T10:40:14.508Z,124.03
2023-04-27T10:41:14.795Z,137.96
2023-04-27T10:42:14.467Z,129.91
2023-04-27T10:43:14.456Z,113.95
2023-04-27T10:44:14.624Z,90.42
2023-04-27T10:45:14.456Z,108.49
2023-04-27T10:46:14.603Z,147.13
2023-04-27T10:47:14.420Z,150.39
2023-04-27T10:48:14.526Z,156.15
2023-04-27T10:49:14.683Z,170.69
2023-04-27T10:50:14.412Z,170.11
2023-04-27T10:51:14.387Z,175.31
2023-04-27T10:52:14.364Z,173.27
2023-04-27T10:53:14.468Z,173.19
2023-04-27T10:54:14.482Z,174.55
2023-04-27T10:55:14.503Z,178.79
2023-04-27T10:56:14.563Z,189.40
2023-04-27T10:57:14.555Z,199.41
2023-04-27T10:58:14.646Z,200.93
2023-04-27T10:59:14.913Z,203.49
2023-04-27T11:00:16.367Z,207.27
2023-04-27T11:01:14.799Z,201.45
2023-04-27T11:02:14.834Z,203.67
2023-04-27T11:03:15.040Z,203.33
2023-04-27T11:04:15.152Z,206.17
2023-04-27T11:05:15.091Z,201.23
2023-04-27T11:06:15.083Z,196.98
2023-04-27T11:07:15.160Z,198.37
2023-04-27T11:08:15.175Z,198.44
2023-04-27T11:09:15.236Z,202.54
2023-04-27T11:10:15.343Z,206.83
2023-04-27T11:11:16.678Z,206.00
2023-04-27T11:12:15.435Z,207.15
2023-04-27T11:13:15.499Z,213.04
2023-04-27T11:14:15.683Z,211.86
2023-04-27T11:15:15.538Z,221.80
2023-04-27T11:16:15.633Z,225.55
2023-04-27T11:17:15.656Z,225.69
2023-04-27T11:18:15.740Z,225.15
2023-04-27T11:19:16.260Z,226.85
2023-04-27T11:20:15.799Z,231.21
2023-04-27T11:21:15.845Z,228.72
2023-04-27T11:22:15.910Z,225.34
2023-04-27T11:23:15.969Z,227.22
2023-04-27T11:24:16.001Z,229.17
2023-04-27T11:25:16.040Z,230.71
2023-04-27T11:26:16.128Z,228.65
2023-04-27T11:27:16.110Z,229.08
2023-04-27T11:28:16.162Z,230.73
2023-04-27T11:29:16.434Z,232.37
2023-04-27T11:30:16.768Z,229.09
2023-04-27T11:31:16.368Z,233.71
2023-04-27T11:32:16.305Z,229.68
2023-04-27T11:33:16.371Z,226.17
2023-04-27T11:34:16.449Z,232.84
2023-04-27T11:35:16.424Z,233.02
2023-04-27T11:36:16.434Z,233.11
2023-04-27T11:37:19.310Z,233.37
2023-04-27T11:38:17.273Z,231.71
2023-04-27T11:39:16.604Z,233.64
2023-04-27T11:40:16.803Z,232.94
2023-04-27T11:41:16.383Z,236.92
2023-04-27T11:42:16.383Z,239.42
2023-04-27T11:43:16.367Z,242.05
2023-04-27T11:44:16.391Z,243.47
2023-04-27T11:45:16.317Z,238.11
2023-04-27T11:46:16.368Z,235.34
2023-04-27T11:47:18.774Z,234.72
2023-04-27T11:48:16.487Z,240.61
2023-04-27T11:49:16.523Z,239.37
2023-04-27T11:50:16.605Z,235.30
2023-04-27T11:51:16.654Z,236.06
2023-04-27T11:52:16.655Z,238.40
2023-04-27T11:53:18.744Z,244.58
2023-04-27T11:54:16.818Z,240.20
2023-04-27T11:55:16.694Z,240.97
2023-04-27T11:56:16.763Z,244.15
2023-04-27T11:57:16.798Z,242.84
2023-04-27T11:58:16.773Z,246.02
2023-04-27T11:59:16.822Z,244.82
2023-04-27T12:00:16.835Z,240.61
2023-04-27T12:01:22.025Z,243.00
2023-04-27T12:02:17.944Z,243.12
2023-04-27T12:03:16.979Z,243.89
2023-04-27T12:04:17.128Z,240.52
2023-04-27T12:05:16.968Z,238.95
2023-04-27T12:06:32.300Z,248.32
2023-04-27T12:07:17.854Z,243.23
2023-04-27T12:08:16.817Z,244.12
2023-04-27T12:09:16.822Z,244.92
2023-04-27T12:10:16.878Z,238.44
2023-04-27T12:11:16.835Z,226.46
2023-04-27T12:12:16.794Z,220.32
2023-04-27T12:13:16.764Z,181.76
2023-04-27T12:14:16.990Z,133.16
2023-04-27T12:15:16.759Z,127.63
2023-04-27T12:16:16.828Z,125.43
2023-04-27T12:17:16.717Z,84.54
2023-04-27T12:18:16.737Z,69.61
2023-04-27T12:19:16.727Z,71.67
2023-04-27T12:20:16.704Z,75.11
2023-04-27T12:21:16.828Z,52.47
2023-04-27T12:22:16.685Z,56.86
2023-04-27T12:23:16.790Z,44.94
2023-04-27T12:24:16.995Z,34.90
2023-04-27T12:25:16.835Z,45.61
2023-04-27T12:26:16.866Z,30.34
2023-04-27T12:27:16.850Z,25.76
2023-04-27T12:28:16.852Z,20.30
2023-04-27T12:29:16.911Z,21.80
2023-04-27T12:30:16.902Z,41.83
2023-04-27T12:31:16.915Z,36.32
2023-04-27T12:32:16.982Z,39.07
2023-04-27T12:33:17.154Z,57.83
2023-04-27T12:34:17.085Z,70.15
2023-04-27T12:35:16.988Z,83.10
2023-04-27T12:36:17.053Z,68.16
2023-04-27T12:37:17.032Z,50.46
2023-04-27T12:38:17.043Z,30.61
2023-04-27T12:39:17.132Z,54.88
2023-04-27T12:40:17.121Z,59.86
2023-04-27T12:41:17.154Z,70.67
2023-04-27T12:42:17.217Z,95.95
2023-04-27T12:43:17.251Z,102.95
2023-04-27T12:44:17.227Z,98.81
2023-04-27T12:45:17.225Z,94.06
2023-04-27T12:46:17.285Z,91.35
2023-04-27T12:47:32.677Z,117.66
2023-04-27T12:48:18.271Z,118.09
2023-04-27T12:49:17.272Z,119.61
2023-04-27T12:50:17.188Z,120.44
2023-04-27T12:51:17.174Z,122.29
2023-04-27T12:52:17.203Z,136.83
2023-04-27T12:53:17.176Z,139.48
2023-04-27T12:54:17.419Z,154.09
2023-04-27T12:55:31.392Z,139.72
2023-04-27T12:56:18.189Z,120.34
2023-04-27T12:57:17.184Z,108.46
2023-04-27T12:58:17.163Z,70.35
2023-04-27T12:59:17.158Z,80.81
2023-04-27T13:00:17.146Z,89.40
2023-04-27T13:01:17.137Z,112.76
2023-04-27T13:02:17.155Z,83.12
2023-04-27T13:03:17.244Z,108.86
2023-04-27T13:04:17.321Z,112.94
2023-04-27T13:05:17.177Z,91.81
2023-04-27T13:06:17.109Z,87.07
2023-04-27T13:07:17.058Z,79.48
2023-04-27T13:08:17.076Z,70.46
2023-04-27T13:09:17.073Z,48.17
2023-04-27T13:10:17.111Z,89.43
2023-04-27T13:11:17.101Z,99.97
2023-04-27T13:12:17.048Z,67.41
2023-04-27T13:13:17.061Z,25.39
2023-04-27T13:14:17.234Z,29.62
2023-04-27T13:15:17.021Z,45.06
2023-04-27T13:16:17.069Z,61.13
2023-04-27T13:17:17.045Z,55.02
2023-04-27T13:18:17.155Z,72.86
2023-04-27T13:19:17.104Z,89.10
2023-04-27T13:20:17.202Z,92.32
2023-04-27T13:21:17.173Z,88.84
2023-04-27T13:22:17.230Z,71.71
2023-04-27T13:23:17.304Z,79.38
2023-04-27T13:24:17.328Z,91.71
2023-04-27T13:25:17.299Z,91.71
2023-04-27T13:26:17.819Z,88.68
2023-04-27T13:27:17.366Z,89.27
2023-04-27T13:28:17.343Z,90.73
2023-04-27T13:29:17.410Z,107.11
2023-04-27T13:30:17.376Z,113.67
2023-04-27T13:31:17.415Z,127.57
2023-04-27T13:32:17.374Z,124.02
2023-04-27T13:33:22.492Z,126.52
2023-04-27T13:34:18.364Z,126.68
2023-04-27T13:35:17.436Z,128.27
2023-04-27T13:36:17.379Z,128.79
2023-04-27T13:37:17.372Z,111.77
2023-04-27T13:38:17.377Z,72.16
2023-04-27T13:39:17.351Z,89.08
2023-04-27T13:40:17.328Z,95.22
2023-04-27T13:41:17.328Z,105.50
2023-04-27T13:42:17.334Z,107.79
2023-04-27T13:43:17.284Z,111.74
2023-04-27T13:44:17.302Z,119.33
2023-04-27T13:45:17.303Z,86.97
2023-04-27T13:46:17.354Z,35.08
2023-04-27T13:47:17.299Z,27.73
2023-04-27T13:48:17.241Z,25.00
2023-04-27T13:49:17.280Z,25.00
2023-04-27T13:50:17.271Z,26.52
2023-04-27T13:51:17.277Z,24.78
2023-04-27T13:52:17.242Z,34.88
2023-04-27T13:53:17.300Z,31.23
2023-04-27T13:54:17.329Z,25.00
2023-04-27T13:55:17.306Z,33.66
2023-04-27T13:56:17.368Z,37.80
2023-04-27T13:57:17.337Z,33.09
2023-04-27T13:58:17.392Z,40.37
2023-04-27T13:59:17.364Z,54.88
2023-04-27T14:00:17.351Z,65.09
2023-04-27T14:01:17.404Z,90.13
2023-04-27T14:02:17.461Z,81.78
2023-04-27T14:03:17.610Z,91.55
2023-04-27T14:04:17.665Z,106.59
2023-04-27T14:05:17.507Z,118.11
2023-04-27T14:06:17.513Z,139.01
2023-04-27T14:07:17.525Z,142.78
2023-04-27T14:08:17.507Z,149.59
2023-04-27T14:09:17.519Z,168.91
2023-04-27T14:10:17.589Z,172.81
2023-04-27T14:11:17.596Z,179.31
2023-04-27T14:12:17.634Z,136.42
2023-04-27T14:13:17.682Z,143.38
2023-04-27T14:14:17.724Z,139.97
2023-04-27T14:15:17.816Z,145.83
2023-04-27T14:16:17.850Z,158.53
2023-04-27T14:17:17.905Z,155.07
2023-04-27T14:18:17.981Z,151.39
2023-04-27T14:19:17.973Z,163.93
2023-04-27T14:20:18.020Z,198.71
2023-04-27T14:21:18.066Z,194.04
2023-04-27T14:22:18.069Z,188.89
2023-04-27T14:23:18.149Z,192.39
2023-04-27T14:24:18.248Z,164.60
2023-04-27T14:25:18.252Z,205.52
2023-04-27T14:26:18.295Z,225.30
2023-04-27T14:27:18.399Z,232.08
2023-04-27T14:28:18.395Z,239.94
2023-04-27T14:29:18.906Z,243.04
2023-04-27T14:30:18.522Z,246.37
2023-04-27T14:31:18.581Z,237.48
2023-04-27T14:32:18.796Z,244.10
2023-04-27T14:33:18.664Z,249.54
2023-04-27T14:34:21.489Z,233.24
2023-04-27T14:35:18.680Z,239.19
2023-04-27T14:36:18.722Z,249.42
2023-04-27T14:37:18.697Z,249.74
2023-04-27T14:38:18.672Z,248.99
2023-04-27T14:39:18.623Z,246.00
2023-04-27T14:40:18.656Z,247.56
2023-04-27T14:41:18.623Z,245.80
2023-04-27T14:42:18.640Z,247.42
2023-04-27T14:43:19.385Z,248.35
2023-04-27T14:44:18.616Z,248.80
2023-04-27T14:45:18.587Z,248.01
2023-04-27T14:46:20.894Z,247.90
2023-04-27T14:47:18.994Z,248.04
2023-04-27T14:48:19.850Z,248.70
2023-04-27T14:49:19.843Z,248.81
2023-04-27T14:50:18.932Z,251.54
2023-04-27T14:51:19.000Z,251.80
2023-04-27T14:52:20.872Z,250.51
2023-04-27T14:53:19.883Z,247.86
2023-04-27T14:54:19.027Z,249.37
2023-04-27T14:55:18.998Z,247.83
2023-04-27T14:56:19.031Z,247.64
2023-04-27T14:57:18.966Z,249.17
2023-04-27T14:58:21.946Z,247.74
2023-04-27T14:59:18.985Z,248.46
2023-04-27T15:00:18.960Z,248.59
2023-04-27T15:01:19.013Z,249.12
2023-04-27T15:02:19.075Z,245.79
2023-04-27T15:03:19.064Z,245.76
2023-04-27T15:04:19.060Z,245.28
2023-04-27T15:05:18.917Z,245.40
2023-04-27T15:06:18.955Z,247.19
2023-04-27T15:07:18.922Z,248.10
2023-04-27T15:08:19.045Z,247.64
2023-04-27T15:09:18.878Z,247.04
2023-04-27T15:10:19.055Z,245.91
2023-04-27T15:11:18.868Z,246.83
2023-04-27T15:12:18.864Z,247.31
2023-04-27T15:13:18.867Z,246.37
2023-04-27T15:14:18.821Z,248.22
2023-04-27T15:15:18.844Z,247.89
2023-04-27T15:16:18.880Z,244.47
2023-04-27T15:17:18.834Z,247.11
2023-04-27T15:18:18.851Z,245.30
2023-04-27T15:19:18.831Z,247.62
2023-04-27T15:20:18.808Z,244.90
2023-04-27T15:21:18.891Z,245.20
2023-04-27T15:22:18.779Z,246.13
2023-04-27T15:23:18.788Z,247.40
2023-04-27T15:24:18.748Z,244.99
2023-04-27T15:25:18.774Z,245.58
2023-04-27T15:26:18.853Z,246.41
2023-04-27T15:27:21.387Z,246.01
2023-04-27T15:28:20.074Z,246.06
2023-04-27T15:29:20.917Z,244.59
2023-04-27T15:30:19.867Z,246.27
2023-04-27T15:31:18.982Z,246.43
2023-04-27T15:32:18.937Z,244.32
2023-04-27T15:33:19.081Z,246.56
2023-04-27T15:34:18.993Z,246.02
2023-04-27T15:35:19.095Z,246.05
2023-04-27T15:36:18.935Z,246.24
2023-04-27T15:37:18.910Z,245.67
2023-04-27T15:38:18.997Z,246.08
2023-04-27T15:39:18.928Z,245.93
2023-04-27T15:40:21.887Z,244.73
2023-04-27T15:41:18.893Z,244.56
2023-04-27T15:42:18.903Z,247.11
2023-04-27T15:43:19.483Z,243.93
2023-04-27T15:44:18.888Z,245.39
2023-04-27T15:45:19.849Z,244.43
2023-04-27T15:46:20.444Z,244.60
2023-04-27T15:47:18.869Z,243.98
2023-04-27T15:48:18.911Z,243.17
2023-04-27T15:49:19.331Z,242.27
2023-04-27T15:50:18.936Z,242.11
2023-04-27T15:51:20.189Z,243.63
2023-04-27T15:52:18.827Z,242.66
2023-04-27T15:53:18.803Z,244.17
2023-04-27T15:54:18.773Z,243.00
2023-04-27T15:55:18.775Z,243.12
2023-04-27T15:56:19.368Z,242.62
2023-04-27T15:57:18.778Z,243.31
2023-04-27T15:58:18.757Z,243.41
2023-04-27T15:59:18.856Z,240.99
2023-04-27T16:00:18.781Z,243.04
2023-04-27T16:01:18.772Z,243.04
2023-04-27T16:02:19.479Z,243.10
2023-04-27T16:03:18.835Z,242.23
2023-04-27T16:04:20.540Z,243.03
2023-04-27T16:05:18.888Z,243.28
2023-04-27T16:06:18.934Z,243.06
2023-04-27T16:07:21.995Z,242.44
2023-04-27T16:08:18.963Z,243.07
2023-04-27T16:09:19.933Z,243.08
2023-04-27T16:10:18.924Z,243.04
2023-04-27T16:11:18.926Z,243.07
2023-04-27T16:12:18.951Z,242.15
2023-04-27T16:13:18.955Z,242.39
2023-04-27T16:14:19.009Z,239.35
2023-04-27T16:15:18.885Z,241.05
2023-04-27T16:16:30.136Z,237.42
2023-04-27T16:17:18.921Z,237.79
2023-04-27T16:18:18.928Z,237.63
2023-04-27T16:19:18.956Z,238.31
2023-04-27T16:20:18.881Z,238.80
2023-04-27T16:21:19.466Z,238.48
2023-04-27T16:22:18.890Z,239.85
2023-04-27T16:23:18.849Z,239.95
2023-04-27T16:24:18.923Z,239.27
2023-04-27T16:25:18.866Z,238.13
2023-04-27T16:26:18.862Z,238.60
2023-04-27T16:27:18.824Z,238.70
2023-04-27T16:28:18.822Z,238.69
2023-04-27T16:29:18.882Z,238.40
2023-04-27T16:30:18.786Z,238.77
2023-04-27T16:31:18.851Z,241.22
2023-04-27T16:32:19.466Z,238.71
2023-04-27T16:33:20.902Z,238.69
2023-04-27T16:34:18.940Z,238.84
2023-04-27T16:35:19.008Z,237.86
2023-04-27T16:36:19.054Z,237.64
2023-04-27T16:37:19.032Z,238.67
2023-04-27T16:38:19.028Z,238.94
2023-04-27T16:39:22.425Z,239.41
2023-04-27T16:40:19.882Z,239.19
2023-04-27T16:41:19.899Z,239.75
2023-04-27T16:42:19.010Z,238.72
2023-04-27T16:43:19.876Z,239.02
2023-04-27T16:44:20.916Z,239.28
2023-04-27T16:45:19.002Z,239.43
2023-04-27T16:46:19.067Z,240.58
2023-04-27T16:47:18.970Z,240.06
2023-04-27T16:48:19.862Z,237.54
2023-04-27T16:49:19.901Z,237.52
2023-04-27T16:50:18.921Z,240.44
2023-04-27T16:51:18.932Z,240.09
2023-04-27T16:52:18.911Z,237.29
2023-04-27T16:53:19.001Z,238.32
2023-04-27T16:54:23.914Z,238.38
2023-04-27T16:55:18.900Z,240.50
2023-04-27T16:56:19.100Z,238.81
2023-04-27T16:57:21.909Z,239.44
2023-04-27T16:58:19.390Z,238.93
2023-04-27T16:59:18.946Z,237.16
2023-04-27T17:00:26.389Z,239.39
